createdAt,value
2018-08-06T00:00:53.107Z,4.60
2018-08-06T00:01:53.014Z,5.00
2018-08-06T00:02:52.922Z,4.40
2018-08-06T00:03:52.829Z,4.60
2018-08-06T00:04:52.763Z,4.40
2018-08-06T00:05:52.645Z,5.20
2018-08-06T00:06:52.553Z,3.90
2018-08-06T00:07:52.459Z,4.40
2018-08-06T00:08:52.373Z,3.80
2018-08-06T00:09:52.304Z,4.30
2018-08-06T00:10:52.190Z,4.60
2018-08-06T00:11:52.094Z,4.90
2018-08-06T00:12:52.001Z,4.70
2018-08-06T00:13:51.913Z,3.90
2018-08-06T00:14:51.842Z,6.00
2018-08-06T00:15:51.728Z,3.70
2018-08-06T00:16:51.636Z,4.20
2018-08-06T00:17:51.543Z,4.60
2018-08-06T00:18:51.452Z,4.60
2018-08-06T00:19:51.384Z,4.10
2018-08-06T00:20:51.269Z,5.20
2018-08-06T00:21:51.176Z,4.20
2018-08-06T00:22:51.105Z,5.90
2018-08-06T00:23:50.994Z,5.10
2018-08-06T00:24:50.924Z,4.10
2018-08-06T00:25:50.810Z,4.50
2018-08-06T00:26:50.718Z,3.80
2018-08-06T00:27:50.623Z,3.60
2018-08-06T00:28:50.532Z,4.20
2018-08-06T00:29:50.441Z,4.10
2018-08-06T00:30:50.373Z,6.40
2018-08-06T00:31:50.259Z,4.90
2018-08-06T00:32:50.177Z,4.70
2018-08-06T00:33:50.074Z,3.30
2018-08-06T00:34:49.981Z,4.20
2018-08-06T00:35:49.908Z,4.10
2018-08-06T00:36:49.797Z,4.80
2018-08-06T00:37:49.990Z,4.60
2018-08-06T00:38:49.613Z,3.40
2018-08-06T00:39:49.522Z,4.60
2018-08-06T00:40:49.451Z,3.80
2018-08-06T00:41:49.337Z,3.50
2018-08-06T00:42:49.246Z,4.40
2018-08-06T00:43:49.154Z,5.60
2018-08-06T00:44:49.187Z,5.20
2018-08-06T00:45:48.993Z,4.30
2018-08-06T00:46:48.877Z,4.50
2018-08-06T00:47:48.791Z,3.40
2018-08-06T00:48:48.692Z,2.90
2018-08-06T00:49:48.602Z,3.70
2018-08-06T00:50:48.532Z,4.20
2018-08-06T00:51:48.417Z,4.70
2018-08-06T00:52:48.326Z,5.40
2018-08-06T00:53:48.252Z,3.20
2018-08-06T00:54:48.139Z,4.30
2018-08-06T00:55:48.073Z,4.00
2018-08-06T00:56:47.955Z,3.50
2018-08-06T00:57:47.864Z,4.00
2018-08-06T00:58:47.771Z,3.60
2018-08-06T00:59:47.681Z,4.10
2018-08-06T01:00:47.610Z,4.60
2018-08-06T01:01:47.500Z,3.60
2018-08-06T01:02:47.404Z,3.30
2018-08-06T01:03:47.327Z,3.30
2018-08-06T01:04:47.223Z,3.80
2018-08-06T01:05:47.153Z,3.20
2018-08-06T01:06:47.037Z,3.90
2018-08-06T01:07:46.950Z,3.10
2018-08-06T01:08:46.855Z,4.30
2018-08-06T01:09:46.759Z,4.10
2018-08-06T01:10:46.689Z,3.60
2018-08-06T01:11:46.579Z,3.20
2018-08-06T01:12:46.489Z,5.80
2018-08-06T01:13:46.390Z,3.90
2018-08-06T01:14:46.301Z,5.30
2018-08-06T01:15:46.227Z,3.10
2018-08-06T01:16:46.112Z,4.80
2018-08-06T01:17:46.025Z,4.60
2018-08-06T01:18:45.930Z,4.10
2018-08-06T01:19:45.929Z,4.60
2018-08-06T01:20:45.748Z,3.30
2018-08-06T01:21:45.680Z,4.30
2018-08-06T01:22:45.563Z,3.60
2018-08-06T01:23:45.471Z,4.00
2018-08-06T01:24:45.375Z,4.30
2018-08-06T01:25:45.286Z,4.30
2018-08-06T01:26:45.215Z,5.00
2018-08-06T01:27:45.103Z,4.30
2018-08-06T01:28:45.011Z,3.70
2018-08-06T01:29:44.917Z,5.60
2018-08-06T01:30:44.823Z,4.90
2018-08-06T01:31:44.752Z,4.50
2018-08-06T01:32:44.641Z,6.00
2018-08-06T01:33:44.636Z,5.50
2018-08-06T01:34:44.460Z,4.20
2018-08-06T01:35:44.362Z,5.30
2018-08-06T01:36:44.295Z,4.20
2018-08-06T01:37:44.178Z,5.00
2018-08-06T01:38:44.090Z,6.10
2018-08-06T01:39:43.992Z,4.40
2018-08-06T01:40:43.988Z,4.60
2018-08-06T01:41:43.830Z,3.90
2018-08-06T01:42:43.723Z,4.00
2018-08-06T01:43:43.624Z,4.90
2018-08-06T01:44:43.551Z,5.10
2018-08-06T01:45:43.470Z,5.30
2018-08-06T01:46:43.367Z,4.70
2018-08-06T01:47:43.349Z,4.30
2018-08-06T01:48:43.163Z,3.80
2018-08-06T01:49:43.071Z,4.00
2018-08-06T01:50:42.977Z,4.90
2018-08-06T01:51:42.906Z,5.90
2018-08-06T01:52:42.792Z,5.90
2018-08-06T01:53:42.702Z,4.90
2018-08-06T01:54:42.705Z,6.50
2018-08-06T01:55:42.512Z,6.10
2018-08-06T01:56:42.425Z,4.40
2018-08-06T01:57:42.352Z,4.10
2018-08-06T01:58:42.236Z,4.80
2018-08-06T01:59:42.144Z,4.30
2018-08-06T02:00:42.053Z,4.20
2018-08-06T02:01:42.059Z,6.50
2018-08-06T02:02:41.889Z,4.70
2018-08-06T02:03:41.775Z,4.70
2018-08-06T02:04:41.683Z,5.50
2018-08-06T02:05:41.589Z,5.00
2018-08-06T02:06:41.500Z,4.90
2018-08-06T02:07:41.424Z,4.60
2018-08-06T02:08:41.403Z,5.60
2018-08-06T02:09:41.217Z,4.20
2018-08-06T02:10:41.128Z,5.60
2018-08-06T02:11:41.037Z,4.50
2018-08-06T02:12:40.962Z,5.70
2018-08-06T02:13:40.845Z,5.20
2018-08-06T02:14:40.756Z,4.10
2018-08-06T02:15:40.768Z,3.90
2018-08-06T02:16:40.569Z,4.50
2018-08-06T02:17:40.496Z,4.30
2018-08-06T02:18:40.384Z,5.50
2018-08-06T02:19:40.294Z,5.70
2018-08-06T02:20:40.201Z,6.10
2018-08-06T02:21:40.105Z,7.30
2018-08-06T02:22:40.131Z,6.10
2018-08-06T02:23:39.921Z,5.70
2018-08-06T02:24:39.834Z,5.00
2018-08-06T02:25:39.752Z,6.30
2018-08-06T02:26:39.643Z,6.80
2018-08-06T02:27:39.572Z,7.60
2018-08-06T02:28:39.458Z,6.40
2018-08-06T02:29:39.459Z,5.20
2018-08-06T02:30:39.275Z,6.40
2018-08-06T02:31:39.181Z,6.90
2018-08-06T02:32:39.108Z,5.50
2018-08-06T02:33:38.997Z,6.90
2018-08-06T02:34:38.903Z,5.60
2018-08-06T02:35:38.812Z,7.50
2018-08-06T02:36:38.816Z,5.10
2018-08-06T02:37:38.644Z,6.30
2018-08-06T02:38:38.533Z,6.20
2018-08-06T02:39:38.436Z,5.70
2018-08-06T02:40:38.346Z,4.40
2018-08-06T02:41:38.252Z,4.90
2018-08-06T02:42:38.182Z,4.60
2018-08-06T02:43:38.159Z,8.00
2018-08-06T02:44:37.977Z,7.90
2018-08-06T02:45:37.881Z,6.00
2018-08-06T02:46:37.788Z,7.90
2018-08-06T02:47:37.700Z,5.30
2018-08-06T02:48:37.624Z,5.50
2018-08-06T02:49:37.509Z,5.40
2018-08-06T02:50:37.415Z,5.10
2018-08-06T02:51:37.327Z,4.90
2018-08-06T02:52:37.232Z,5.30
2018-08-06T02:53:37.162Z,8.00
2018-08-06T02:54:37.044Z,6.30
2018-08-06T02:55:36.955Z,5.70
2018-08-06T02:56:36.861Z,4.80
2018-08-06T02:57:36.771Z,4.20
2018-08-06T02:58:36.697Z,6.00
2018-08-06T02:59:36.583Z,4.40
2018-08-06T03:00:36.490Z,5.10
2018-08-06T03:01:36.398Z,4.20
2018-08-06T03:02:36.307Z,6.20
2018-08-06T03:03:36.234Z,6.00
2018-08-06T03:04:36.119Z,8.50
2018-08-06T03:05:36.026Z,7.10
2018-08-06T03:06:35.933Z,7.00
2018-08-06T03:07:35.841Z,7.30
2018-08-06T03:08:35.772Z,10.40
2018-08-06T03:09:35.656Z,8.00
2018-08-06T03:10:35.563Z,8.50
2018-08-06T03:11:35.469Z,8.60
2018-08-06T03:12:35.379Z,11.80
2018-08-06T03:13:35.307Z,7.00
2018-08-06T03:14:35.191Z,8.10
2018-08-06T03:15:35.098Z,5.60
2018-08-06T03:16:35.005Z,6.30
2018-08-06T03:17:34.917Z,6.40
2018-08-06T03:18:34.848Z,4.60
2018-08-06T03:19:34.725Z,4.20
2018-08-06T03:20:34.636Z,5.10
2018-08-06T03:21:34.543Z,5.70
2018-08-06T03:22:34.447Z,8.30
2018-08-06T03:23:34.379Z,5.50
2018-08-06T03:24:34.264Z,7.00
2018-08-06T03:25:34.167Z,8.80
2018-08-06T03:26:34.073Z,7.60
2018-08-06T03:27:33.985Z,9.60
2018-08-06T03:28:33.914Z,7.30
2018-08-06T03:29:33.843Z,7.20
2018-08-06T03:30:33.708Z,8.20
2018-08-06T03:31:33.613Z,6.50
2018-08-06T03:32:33.521Z,8.70
2018-08-06T03:33:33.426Z,6.80
2018-08-06T03:34:33.355Z,6.90
2018-08-06T03:35:33.240Z,8.30
2018-08-06T03:36:33.164Z,8.70
2018-08-06T03:37:33.052Z,8.00
2018-08-06T03:38:32.965Z,8.40
2018-08-06T03:39:32.894Z,7.00
2018-08-06T03:40:32.776Z,5.00
2018-08-06T03:41:32.688Z,9.20
2018-08-06T03:42:32.593Z,6.70
2018-08-06T03:43:32.497Z,4.70
2018-08-06T03:44:32.427Z,6.30
2018-08-06T03:45:32.313Z,5.30
2018-08-06T03:46:32.238Z,6.60
2018-08-06T03:47:32.127Z,9.80
2018-08-06T03:48:32.032Z,7.70
2018-08-06T03:49:31.961Z,6.10
2018-08-06T03:50:31.852Z,6.80
2018-08-06T03:51:31.757Z,4.80
2018-08-06T03:52:31.666Z,6.00
2018-08-06T03:53:31.570Z,5.30
2018-08-06T03:54:31.500Z,5.40
2018-08-06T03:55:31.387Z,5.70
2018-08-06T03:56:31.292Z,7.40
2018-08-06T03:57:31.211Z,8.30
2018-08-06T03:58:31.105Z,13.10
2018-08-06T03:59:31.037Z,10.60
2018-08-06T04:00:30.922Z,5.00
2018-08-06T04:01:30.826Z,7.70
2018-08-06T04:02:30.737Z,5.70
2018-08-06T04:03:30.642Z,5.60
2018-08-06T04:04:30.572Z,7.30
2018-08-06T04:05:30.456Z,9.70
2018-08-06T04:06:30.458Z,10.80
2018-08-06T04:07:30.272Z,11.30
2018-08-06T04:08:30.181Z,7.90
2018-08-06T04:09:30.109Z,9.70
2018-08-06T04:10:29.992Z,10.70
2018-08-06T04:11:29.901Z,8.80
2018-08-06T04:12:29.811Z,7.70
2018-08-06T04:13:29.729Z,5.80
2018-08-06T04:14:29.646Z,7.20
2018-08-06T04:15:29.532Z,5.10
2018-08-06T04:16:29.438Z,4.30
2018-08-06T04:17:29.345Z,8.30
2018-08-06T04:18:29.249Z,9.30
2018-08-06T04:19:29.163Z,6.10
2018-08-06T04:20:29.181Z,4.40
2018-08-06T04:21:28.972Z,5.60
2018-08-06T04:22:28.880Z,6.00
2018-08-06T04:23:28.787Z,9.50
2018-08-06T04:24:28.698Z,7.50
2018-08-06T04:25:28.623Z,12.10
2018-08-06T04:26:28.511Z,7.50
2018-08-06T04:27:28.419Z,9.00
2018-08-06T04:28:28.323Z,7.60
2018-08-06T04:29:28.229Z,11.80
2018-08-06T04:30:28.161Z,10.30
2018-08-06T04:31:28.046Z,8.50
2018-08-06T04:32:27.955Z,5.70
2018-08-06T04:33:27.863Z,11.40
2018-08-06T04:34:27.863Z,8.20
2018-08-06T04:35:27.703Z,9.30
2018-08-06T04:36:27.583Z,7.30
2018-08-06T04:37:27.488Z,6.90
2018-08-06T04:38:27.428Z,7.30
2018-08-06T04:39:27.304Z,6.70
2018-08-06T04:40:27.236Z,4.10
2018-08-06T04:41:27.206Z,4.90
2018-08-06T04:42:27.029Z,7.00
2018-08-06T04:43:26.934Z,10.40
2018-08-06T04:44:26.843Z,10.60
2018-08-06T04:45:26.770Z,10.40
2018-08-06T04:46:26.655Z,8.90
2018-08-06T04:47:26.563Z,9.10
2018-08-06T04:48:26.577Z,10.40
2018-08-06T04:49:26.378Z,10.00
2018-08-06T04:50:26.308Z,8.40
2018-08-06T04:51:26.194Z,11.20
2018-08-06T04:52:26.104Z,8.30
2018-08-06T04:53:26.009Z,8.10
2018-08-06T04:54:25.919Z,8.70
2018-08-06T04:55:25.942Z,5.40
2018-08-06T04:56:25.734Z,6.20
2018-08-06T04:57:25.643Z,3.50
2018-08-06T04:58:25.550Z,7.40
2018-08-06T04:59:25.461Z,4.00
2018-08-06T05:00:25.367Z,6.20
2018-08-06T05:01:25.297Z,5.40
2018-08-06T05:02:25.281Z,8.60
2018-08-06T05:03:25.095Z,9.40
2018-08-06T05:04:25.003Z,6.10
2018-08-06T05:05:24.932Z,7.00
2018-08-06T05:06:24.823Z,6.60
2018-08-06T05:07:24.728Z,4.20
2018-08-06T05:08:24.637Z,4.80
2018-08-06T05:09:24.633Z,12.60
2018-08-06T05:10:24.457Z,8.60
2018-08-06T05:11:24.388Z,10.80
2018-08-06T05:12:24.274Z,9.80
2018-08-06T05:13:24.184Z,5.20
2018-08-06T05:14:24.089Z,8.90
2018-08-06T05:15:24.001Z,8.70
2018-08-06T05:16:24.027Z,11.80
2018-08-06T05:17:23.818Z,6.20
2018-08-06T05:18:23.733Z,10.10
2018-08-06T05:19:23.707Z,6.80
2018-08-06T05:20:23.550Z,6.30
2018-08-06T05:21:23.481Z,5.40
2018-08-06T05:22:23.367Z,4.70
2018-08-06T05:23:23.372Z,6.20
2018-08-06T05:24:23.193Z,4.30
2018-08-06T05:25:23.095Z,6.10
2018-08-06T05:26:23.027Z,4.70
2018-08-06T05:27:22.913Z,4.20
2018-08-06T05:28:22.822Z,4.90
2018-08-06T05:29:22.736Z,4.80
2018-08-06T05:30:22.645Z,4.60
2018-08-06T05:31:22.640Z,3.60
2018-08-06T05:32:22.463Z,5.10
2018-08-06T05:33:22.373Z,5.90
2018-08-06T05:34:22.280Z,5.50
2018-08-06T05:35:22.194Z,5.10
2018-08-06T05:36:22.122Z,4.20
2018-08-06T05:37:22.012Z,5.50
2018-08-06T05:38:21.924Z,3.70
2018-08-06T05:39:21.831Z,5.40
2018-08-06T05:40:21.746Z,3.00
2018-08-06T05:41:21.687Z,4.80
2018-08-06T05:42:21.566Z,4.60
2018-08-06T05:43:21.472Z,4.50
2018-08-06T05:44:21.395Z,4.10
2018-08-06T05:45:21.293Z,4.00
2018-08-06T05:46:21.225Z,5.70
2018-08-06T05:47:21.114Z,4.20
2018-08-06T05:48:21.070Z,4.70
2018-08-06T05:49:20.932Z,3.10
2018-08-06T05:50:20.854Z,3.80
2018-08-06T05:51:20.752Z,4.10
2018-08-06T05:52:20.689Z,3.30
2018-08-06T05:53:20.571Z,3.90
2018-08-06T05:54:20.480Z,4.60
2018-08-06T05:55:20.394Z,4.20
2018-08-06T05:56:20.304Z,3.80
2018-08-06T05:57:20.233Z,3.40
2018-08-06T05:58:20.140Z,4.20
2018-08-06T05:59:20.033Z,3.20
2018-08-06T06:00:19.949Z,4.80
2018-08-06T06:01:19.856Z,3.60
2018-08-06T06:02:19.786Z,3.20
2018-08-06T06:03:19.689Z,5.30
2018-08-06T06:04:19.588Z,3.20
2018-08-06T06:05:19.499Z,9.40
2018-08-06T06:06:19.410Z,9.60
2018-08-06T06:07:19.345Z,4.50
2018-08-06T06:08:19.230Z,3.60
2018-08-06T06:09:19.144Z,4.30
2018-08-06T06:10:19.052Z,5.60
2018-08-06T06:11:18.961Z,3.10
2018-08-06T06:12:18.902Z,9.40
2018-08-06T06:17:13.598Z,4.50
2018-08-06T06:18:13.716Z,3.80
2018-08-06T06:19:13.448Z,5.40
2018-08-06T06:20:13.313Z,5.60
2018-08-06T06:21:13.223Z,3.70
2018-08-06T06:22:13.149Z,3.10
2018-08-06T06:23:13.045Z,3.80
2018-08-06T06:24:12.957Z,5.10
2018-08-06T06:25:12.871Z,3.00
2018-08-06T06:26:12.779Z,3.50
2018-08-06T06:27:12.707Z,3.50
2018-08-06T06:28:12.603Z,3.60
2018-08-06T06:29:12.513Z,2.20
2018-08-06T06:30:12.529Z,3.40
2018-08-06T06:31:12.348Z,3.10
2018-08-06T06:32:12.262Z,4.10
2018-08-06T06:33:12.164Z,5.90
2018-08-06T06:34:12.074Z,8.60
2018-08-06T06:35:11.984Z,6.00
2018-08-06T06:36:11.896Z,3.40
2018-08-06T06:37:11.919Z,3.30
2018-08-06T06:38:11.740Z,2.80
2018-08-06T06:39:11.629Z,4.30
2018-08-06T06:40:11.542Z,3.80
2018-08-06T06:41:11.454Z,4.00
2018-08-06T06:42:11.364Z,4.50
2018-08-06T06:43:11.295Z,2.30
2018-08-06T06:44:11.292Z,3.10
2018-08-06T06:45:11.106Z,3.70
2018-08-06T06:46:11.012Z,4.10
2018-08-06T06:47:10.926Z,3.60
2018-08-06T06:48:10.851Z,2.80
2018-08-06T06:49:10.769Z,4.10
2018-08-06T06:50:10.661Z,3.30
2018-08-06T06:51:10.572Z,3.10
2018-08-06T06:52:10.490Z,2.50
2018-08-06T06:53:10.410Z,2.90
2018-08-06T06:54:10.311Z,3.00
2018-08-06T06:55:10.222Z,2.50
2018-08-06T06:56:10.135Z,3.50
2018-08-06T06:57:10.048Z,3.40
2018-08-06T06:58:10.079Z,2.80
2018-08-06T06:59:09.875Z,2.70
2018-08-06T07:00:09.797Z,4.60
2018-08-06T07:01:09.701Z,1.90
2018-08-06T07:02:09.614Z,2.70
2018-08-06T07:03:09.544Z,3.90
2018-08-06T07:04:09.570Z,2.90
2018-08-06T07:05:09.357Z,4.80
2018-08-06T07:06:09.272Z,3.30
2018-08-06T07:07:09.188Z,3.20
2018-08-06T07:08:09.119Z,3.30
2018-08-06T07:09:09.019Z,2.80
2018-08-06T07:10:08.935Z,5.60
2018-08-06T07:11:08.851Z,6.10
2018-08-06T07:12:08.765Z,2.40
2018-08-06T07:13:08.695Z,2.60
2018-08-06T07:14:08.675Z,3.40
2018-08-06T07:15:08.513Z,3.50
2018-08-06T07:16:08.432Z,2.40
2018-08-06T07:17:08.352Z,2.40
2018-08-06T07:18:08.281Z,2.90
2018-08-06T07:19:08.201Z,2.30
2018-08-06T07:20:08.106Z,2.40
2018-08-06T07:21:08.013Z,3.10
2018-08-06T07:22:07.934Z,3.20
2018-08-06T07:23:07.849Z,3.00
2018-08-06T07:24:07.779Z,2.30
2018-08-06T07:25:07.684Z,1.90
2018-08-06T07:26:07.677Z,3.30
2018-08-06T07:27:07.519Z,3.80
2018-08-06T07:28:07.443Z,4.80
2018-08-06T07:29:07.368Z,2.20
2018-08-06T07:30:07.281Z,1.90
2018-08-06T07:31:07.189Z,3.50
2018-08-06T07:32:07.107Z,2.70
2018-08-06T07:33:07.026Z,2.80
2018-08-06T07:34:06.959Z,2.70
2018-08-06T07:35:06.864Z,3.40
2018-08-06T07:36:06.782Z,3.30
2018-08-06T07:37:06.702Z,2.10
2018-08-06T07:38:06.619Z,2.70
2018-08-06T07:39:06.554Z,2.50
2018-08-06T07:40:06.467Z,3.20
2018-08-06T07:41:06.375Z,2.70
2018-08-06T07:42:06.294Z,3.50
2018-08-06T07:43:06.232Z,2.30
2018-08-06T07:44:06.151Z,3.90
2018-08-06T07:45:06.052Z,2.70
2018-08-06T07:46:05.972Z,2.80
2018-08-06T07:47:05.912Z,2.80
2018-08-06T07:48:05.810Z,3.00
2018-08-06T07:49:05.744Z,2.80
2018-08-06T07:50:05.648Z,2.80
2018-08-06T07:51:05.568Z,3.00
2018-08-06T07:52:05.507Z,2.50
2018-08-06T07:53:05.408Z,2.80
2018-08-06T07:54:05.343Z,2.60
2018-08-06T07:55:05.249Z,2.80
2018-08-06T07:56:05.164Z,3.30
2018-08-06T07:57:05.085Z,3.00
2018-08-06T07:58:05.005Z,3.10
2018-08-06T07:59:04.939Z,2.40
2018-08-06T08:00:04.848Z,3.40
2018-08-06T08:01:04.763Z,1.40
2018-08-06T08:02:04.684Z,2.20
2018-08-06T08:03:04.601Z,2.60
2018-08-06T08:04:04.525Z,2.80
2018-08-06T08:05:04.454Z,2.00
2018-08-06T08:06:04.360Z,2.30
2018-08-06T08:07:04.283Z,2.90
2018-08-06T08:08:04.206Z,5.10
2018-08-06T08:09:04.123Z,4.90
2018-08-06T08:10:04.057Z,3.10
2018-08-06T08:11:03.960Z,2.90
2018-08-06T08:12:03.920Z,2.20
2018-08-06T08:13:03.817Z,3.70
2018-08-06T08:14:03.718Z,3.10
2018-08-06T08:15:03.654Z,2.30
2018-08-06T08:16:03.559Z,2.90
2018-08-06T08:17:03.478Z,2.30
2018-08-06T08:18:03.398Z,3.70
2018-08-06T08:19:03.318Z,3.40
2018-08-06T08:20:03.317Z,3.60
2018-08-06T08:21:03.261Z,4.50
2018-08-06T08:22:03.078Z,3.40
2018-08-06T08:23:02.997Z,3.20
2018-08-06T08:24:02.918Z,2.10
2018-08-06T08:25:02.851Z,3.50
2018-08-06T08:26:02.756Z,2.90
2018-08-06T08:27:02.691Z,3.00
2018-08-06T08:28:02.696Z,3.60
2018-08-06T08:29:02.515Z,3.10
2018-08-06T08:30:02.454Z,3.00
2018-08-06T08:31:02.360Z,2.60
2018-08-06T08:32:02.276Z,3.30
2018-08-06T08:33:02.197Z,3.20
2018-08-06T08:34:02.169Z,3.80
2018-08-06T08:35:02.162Z,2.60
2018-08-06T08:36:01.957Z,2.90
2018-08-06T08:37:01.878Z,2.60
2018-08-06T08:38:01.801Z,3.30
2018-08-06T08:39:01.716Z,3.10
2018-08-06T08:40:01.652Z,2.70
2018-08-06T08:41:01.561Z,3.40
2018-08-06T08:42:01.592Z,3.00
2018-08-06T08:43:01.397Z,2.60
2018-08-06T08:44:01.318Z,3.00
2018-08-06T08:45:01.256Z,4.20
2018-08-06T08:46:01.159Z,3.70
2018-08-06T08:47:01.080Z,2.20
2018-08-06T08:48:01.000Z,3.00
2018-08-06T08:49:01.023Z,5.10
2018-08-06T08:50:00.848Z,3.50
2018-08-06T08:51:00.776Z,2.90
2018-08-06T08:52:00.683Z,3.00
2018-08-06T08:53:00.604Z,2.00
2018-08-06T08:54:00.526Z,2.20
2018-08-06T08:55:00.447Z,2.60
2018-08-06T08:56:00.488Z,2.20
2018-08-06T08:57:00.286Z,3.00
2018-08-06T08:58:00.211Z,2.50
2018-08-06T08:59:00.303Z,1.90
2018-08-06T09:00:00.065Z,1.70
2018-08-06T09:00:59.985Z,2.60
2018-08-06T09:01:59.906Z,2.90
2018-08-06T09:02:59.923Z,2.20
2018-08-06T09:03:59.734Z,1.50
2018-08-06T09:04:59.655Z,4.10
2018-08-06T09:05:59.591Z,3.60
2018-08-06T09:06:59.499Z,2.50
2018-08-06T09:07:59.419Z,2.50
2018-08-06T09:08:59.343Z,2.40
2018-08-06T09:09:59.364Z,3.60
2018-08-06T09:10:59.198Z,2.50
2018-08-06T09:11:59.106Z,1.90
2018-08-06T09:12:59.026Z,2.10
2018-08-06T09:13:59.024Z,1.40
2018-08-06T09:14:58.874Z,3.20
2018-08-06T09:15:58.809Z,1.70
2018-08-06T09:16:58.851Z,2.30
2018-08-06T09:17:58.635Z,3.40
2018-08-06T09:18:58.557Z,2.30
2018-08-06T09:19:58.480Z,2.00
2018-08-06T09:20:58.416Z,3.20
2018-08-06T09:21:58.331Z,3.10
2018-08-06T09:22:58.245Z,3.20
2018-08-06T09:23:58.171Z,3.20
2018-08-06T09:24:58.091Z,1.70
2018-08-06T09:25:58.027Z,1.20
2018-08-06T09:26:57.933Z,2.60
2018-08-06T09:27:57.859Z,1.60
2018-08-06T09:28:57.779Z,1.20
2018-08-06T09:29:57.702Z,2.30
2018-08-06T09:30:57.639Z,6.30
2018-08-06T09:31:57.585Z,3.00
2018-08-06T09:32:57.467Z,10.30
2018-08-06T09:33:57.423Z,1.80
2018-08-06T09:34:57.312Z,2.40
2018-08-06T09:35:57.251Z,2.60
2018-08-06T09:36:57.158Z,3.10
2018-08-06T09:37:57.090Z,2.00
2018-08-06T09:38:57.006Z,2.40
2018-08-06T09:39:56.926Z,1.00
2018-08-06T09:40:56.851Z,1.70
2018-08-06T09:41:56.786Z,2.70
2018-08-06T09:42:56.695Z,1.20
2018-08-06T09:43:56.618Z,1.80
2018-08-06T09:44:56.540Z,1.60
2018-08-06T09:45:56.561Z,0.70
2018-08-06T09:46:56.398Z,0.80
2018-08-06T09:47:56.305Z,2.00
2018-08-06T09:48:56.228Z,1.30
2018-08-06T09:49:56.174Z,1.30
2018-08-06T09:50:56.075Z,1.70
2018-08-06T09:51:56.013Z,1.50
2018-08-06T09:52:55.918Z,1.40
2018-08-06T09:53:55.840Z,1.60
2018-08-06T09:54:55.762Z,1.90
2018-08-06T09:55:55.685Z,1.70
2018-08-06T09:56:55.626Z,2.90
2018-08-06T09:57:55.532Z,2.80
2018-08-06T09:58:55.453Z,2.00
2018-08-06T09:59:55.379Z,3.00
2018-08-06T10:00:55.300Z,1.40
2018-08-06T10:01:55.247Z,1.30
2018-08-06T10:02:55.146Z,2.30
2018-08-06T10:03:55.072Z,1.30
2018-08-06T10:04:54.991Z,1.80
2018-08-06T10:05:55.132Z,1.50
2018-08-06T10:06:54.855Z,0.80
2018-08-06T10:07:54.761Z,1.40
2018-08-06T10:08:54.685Z,2.10
2018-08-06T10:09:54.608Z,3.50
2018-08-06T10:10:54.533Z,1.30
2018-08-06T10:11:54.480Z,2.60
2018-08-06T10:12:54.395Z,1.30
2018-08-06T10:13:54.312Z,1.70
2018-08-06T10:14:54.224Z,1.70
2018-08-06T10:15:54.150Z,1.60
2018-08-06T10:16:54.072Z,1.50
2018-08-06T10:17:54.009Z,2.80
2018-08-06T10:18:53.965Z,1.90
2018-08-06T10:19:53.841Z,1.50
2018-08-06T10:20:53.763Z,1.80
2018-08-06T10:21:53.687Z,1.70
2018-08-06T10:22:53.628Z,1.00
2018-08-06T10:23:53.535Z,1.80
2018-08-06T10:24:53.457Z,1.10
2018-08-06T10:25:53.380Z,1.10
2018-08-06T10:26:53.318Z,1.50
2018-08-06T10:27:53.244Z,1.90
2018-08-06T10:28:53.149Z,1.70
2018-08-06T10:29:53.082Z,2.00
2018-08-06T10:30:52.999Z,1.60
2018-08-06T10:31:52.924Z,1.00
2018-08-06T10:32:52.859Z,1.90
2018-08-06T10:33:52.767Z,2.00
2018-08-06T10:34:52.691Z,1.90
2018-08-06T10:35:52.614Z,3.00
2018-08-06T10:36:52.545Z,2.30
2018-08-06T10:37:52.476Z,0.90
2018-08-06T10:38:52.398Z,0.80
2018-08-06T10:39:52.307Z,1.00
2018-08-06T10:40:52.229Z,1.40
2018-08-06T10:41:52.153Z,1.20
2018-08-06T10:42:52.102Z,1.00
2018-08-06T10:43:51.999Z,1.50
2018-08-06T10:44:51.924Z,1.60
2018-08-06T10:45:51.847Z,2.90
2018-08-06T10:46:51.768Z,1.70
2018-08-06T10:47:51.725Z,1.30
2018-08-06T10:48:51.616Z,1.60
2018-08-06T10:49:51.538Z,2.40
2018-08-06T10:50:51.466Z,2.30
2018-08-06T10:51:51.387Z,2.80
2018-08-06T10:52:51.325Z,3.80
2018-08-06T10:53:51.334Z,1.20
2018-08-06T10:54:51.157Z,1.70
2018-08-06T10:55:51.078Z,1.20
2018-08-06T10:56:51.000Z,2.60
2018-08-06T10:57:50.925Z,2.00
2018-08-06T10:58:50.861Z,1.50
2018-08-06T10:59:50.770Z,1.60
2018-08-06T11:00:50.798Z,1.10
2018-08-06T11:01:50.620Z,2.90
2018-08-06T11:02:50.614Z,1.30
2018-08-06T11:03:50.480Z,2.50
2018-08-06T11:04:50.385Z,1.10
2018-08-06T11:05:50.308Z,2.90
2018-08-06T11:06:50.231Z,1.00
2018-08-06T11:07:50.268Z,1.80
2018-08-06T11:08:50.100Z,1.70
2018-08-06T11:09:50.000Z,2.70
2018-08-06T11:10:49.924Z,1.10
2018-08-06T11:11:49.848Z,3.00
2018-08-06T11:12:49.777Z,1.20
2018-08-06T11:13:49.812Z,5.40
2018-08-06T11:14:49.620Z,1.80
2018-08-06T11:15:49.541Z,1.20
2018-08-06T11:16:49.463Z,1.40
2018-08-06T11:17:49.393Z,1.70
2018-08-06T11:18:49.325Z,1.90
2018-08-06T11:19:49.237Z,2.40
2018-08-06T11:20:49.160Z,1.30
2018-08-06T11:21:49.083Z,1.80
2018-08-06T11:22:49.009Z,2.00
2018-08-06T11:23:48.948Z,1.40
2018-08-06T11:24:48.852Z,1.60
2018-08-06T11:25:48.778Z,1.20
2018-08-06T11:26:48.704Z,1.70
2018-08-06T11:27:48.729Z,2.00
2018-08-06T11:28:48.564Z,1.60
2018-08-06T11:29:48.475Z,1.90
2018-08-06T11:30:48.402Z,1.30
2018-08-06T11:31:48.322Z,0.90
2018-08-06T11:32:48.284Z,2.80
2018-08-06T11:33:48.188Z,1.10
2018-08-06T11:34:48.201Z,2.10
2018-08-06T11:35:48.026Z,1.30
2018-08-06T11:36:47.977Z,1.00
2018-08-06T11:37:47.874Z,1.30
2018-08-06T11:38:47.817Z,0.90
2018-08-06T11:39:47.716Z,1.20
2018-08-06T11:40:47.638Z,1.80
2018-08-06T11:41:47.563Z,2.20
2018-08-06T11:42:47.486Z,1.20
2018-08-06T11:43:47.412Z,1.10
2018-08-06T11:44:47.349Z,1.90
2018-08-06T11:45:47.259Z,1.20
2018-08-06T11:46:47.183Z,0.90
2018-08-06T11:47:47.108Z,1.50
2018-08-06T11:48:47.045Z,0.80
2018-08-06T11:49:46.986Z,1.30
2018-08-06T11:50:46.881Z,1.80
2018-08-06T11:51:46.804Z,1.10
2018-08-06T11:52:46.727Z,1.40
2018-08-06T11:53:46.652Z,1.70
2018-08-06T11:54:46.592Z,1.90
2018-08-06T11:55:46.501Z,1.90
2018-08-06T11:56:46.596Z,0.90
2018-08-06T11:57:46.349Z,2.00
2018-08-06T11:58:46.278Z,0.90
2018-08-06T11:59:46.215Z,1.40
2018-08-06T12:00:46.122Z,1.40
2018-08-06T12:01:46.061Z,2.10
2018-08-06T12:02:45.973Z,1.40
2018-08-06T12:03:45.895Z,1.50
2018-08-06T12:04:45.856Z,1.20
2018-08-06T12:05:45.743Z,1.40
2018-08-06T12:06:45.669Z,1.60
2018-08-06T12:07:45.592Z,1.20
2018-08-06T12:08:45.516Z,1.10
2018-08-06T12:09:45.441Z,1.20
2018-08-06T12:10:45.377Z,1.00
2018-08-06T12:11:45.288Z,1.10
2018-08-06T12:12:45.211Z,2.30
2018-08-06T12:13:45.182Z,1.50
2018-08-06T12:14:45.060Z,0.60
2018-08-06T12:15:45.023Z,1.20
2018-08-06T12:16:44.907Z,1.30
2018-08-06T12:17:44.831Z,5.00
2018-08-06T12:18:44.769Z,1.00
2018-08-06T12:19:44.681Z,0.70
2018-08-06T12:20:44.621Z,1.50
2018-08-06T12:21:44.528Z,0.60
2018-08-06T12:22:44.450Z,1.80
2018-08-06T12:23:44.374Z,1.50
2018-08-06T12:24:44.317Z,2.40
2018-08-06T12:25:44.287Z,0.70
2018-08-06T12:26:44.147Z,2.40
2018-08-06T12:27:44.074Z,1.90
2018-08-06T12:28:43.994Z,1.90
2018-08-06T12:29:43.920Z,0.90
2018-08-06T12:30:43.860Z,1.70
2018-08-06T12:31:43.770Z,1.40
2018-08-06T12:32:43.690Z,1.80
2018-08-06T12:33:43.617Z,0.80
2018-08-06T12:34:43.566Z,0.80
2018-08-06T12:35:43.492Z,1.70
2018-08-06T12:36:43.388Z,1.50
2018-08-06T12:37:43.314Z,2.60
2018-08-06T12:38:43.235Z,2.20
2018-08-06T12:39:43.165Z,1.20
2018-08-06T12:40:43.100Z,1.70
2018-08-06T12:41:43.009Z,4.20
2018-08-06T12:42:42.941Z,1.00
2018-08-06T12:43:42.862Z,2.10
2018-08-06T12:44:42.793Z,1.40
2018-08-06T12:45:42.723Z,0.90
2018-08-06T12:46:42.631Z,1.40
2018-08-06T12:47:42.555Z,2.10
2018-08-06T12:48:42.478Z,2.20
2018-08-06T12:49:42.402Z,1.90
2018-08-06T12:50:42.458Z,0.60
2018-08-06T12:51:42.282Z,0.90
2018-08-06T12:52:42.173Z,1.00
2018-08-06T12:53:42.098Z,1.20
2018-08-06T12:54:42.023Z,1.50
2018-08-06T12:55:41.946Z,1.50
2018-08-06T12:56:41.885Z,1.20
2018-08-06T12:57:41.897Z,1.60
2018-08-06T12:58:41.717Z,1.30
2018-08-06T12:59:41.643Z,1.20
2018-08-06T13:00:41.564Z,1.50
2018-08-06T13:01:41.505Z,1.20
2018-08-06T13:02:41.415Z,1.90
2018-08-06T13:03:41.337Z,1.40
2018-08-06T13:04:41.361Z,1.90
2018-08-06T13:05:41.186Z,2.10
2018-08-06T13:06:41.122Z,1.00
2018-08-06T13:07:41.031Z,1.10
2018-08-06T13:08:40.958Z,1.20
2018-08-06T13:09:40.880Z,1.60
2018-08-06T13:10:40.803Z,3.10
2018-08-06T13:11:40.835Z,1.50
2018-08-06T13:12:40.664Z,1.50
2018-08-06T13:13:40.575Z,1.30
2018-08-06T13:14:40.501Z,1.30
2018-08-06T13:15:40.422Z,1.40
2018-08-06T13:16:40.345Z,1.50
2018-08-06T13:17:40.300Z,0.90
2018-08-06T13:18:40.307Z,1.50
2018-08-06T13:19:40.117Z,1.80
2018-08-06T13:20:40.038Z,1.30